createdAt,value
2019-03-01T00:02:42.741Z,4.03
2019-03-01T00:08:25.267Z,3.62
2019-03-01T00:13:59.108Z,4.08
2019-03-01T00:19:50.694Z,3.02
2019-03-01T00:25:20.072Z,2.50
2019-03-01T00:30:56.246Z,1.90
2019-03-01T00:36:20.407Z,2.47
2019-03-01T00:42:16.369Z,2.50
2019-03-01T00:47:22.382Z,1.87
2019-03-01T00:52:28.483Z,2.25
2019-03-01T00:57:34.670Z,1.92
2019-03-01T01:02:40.878Z,2.33
2019-03-01T01:07:47.299Z,2.12
2019-03-01T01:12:53.502Z,2.25
2019-03-01T01:17:59.708Z,2.12
2019-03-01T01:23:05.894Z,2.90
2019-03-01T01:28:12.298Z,2.87
2019-03-01T01:33:18.235Z,2.72
2019-03-01T01:38:24.733Z,2.33
2019-03-01T01:43:31.074Z,2.37
2019-03-01T01:48:37.405Z,2.65
2019-03-01T01:53:43.707Z,3.27
2019-03-01T01:58:49.878Z,3.50
2019-03-01T02:03:55.997Z,2.55
2019-03-01T02:09:02.115Z,2.50
2019-03-01T02:14:08.047Z,2.50
2019-03-01T02:19:14.479Z,2.50
2019-03-01T02:24:20.760Z,2.22
2019-03-01T02:29:27.045Z,2.52
2019-03-01T02:34:33.370Z,2.50
2019-03-01T02:39:39.823Z,2.70
2019-03-01T02:44:45.983Z,3.17
2019-03-01T02:49:52.011Z,2.45
2019-03-01T02:54:58.418Z,2.40
2019-03-01T03:00:05.730Z,2.37
2019-03-01T03:05:12.069Z,2.30
2019-03-01T03:10:18.747Z,2.17
2019-03-01T03:15:33.291Z,1.95
2019-03-01T03:20:39.434Z,1.65
2019-03-01T03:25:45.625Z,1.55
2019-03-01T03:30:51.650Z,2.00
2019-03-01T03:35:57.935Z,2.05
2019-03-01T03:41:04.279Z,1.80
2019-03-01T03:46:10.443Z,1.60
2019-03-01T03:51:16.522Z,1.90
2019-03-01T03:56:22.847Z,1.45
2019-03-01T04:01:29.207Z,1.67
2019-03-01T04:06:36.306Z,1.80
2019-03-01T04:11:42.322Z,1.70
2019-03-01T04:16:48.501Z,1.57
2019-03-01T04:21:54.607Z,2.30
2019-03-01T04:27:00.705Z,2.08
2019-03-01T04:32:06.918Z,2.08
2019-03-01T04:37:13.277Z,2.30
2019-03-01T04:42:19.951Z,2.05
2019-03-01T04:47:26.255Z,1.95
2019-03-01T04:52:33.988Z,2.00
2019-03-01T04:57:40.250Z,1.87
2019-03-01T05:02:46.425Z,1.82
2019-03-01T05:07:52.803Z,2.80
2019-03-01T05:12:58.938Z,2.27
2019-03-01T05:18:05.165Z,1.70
2019-03-01T05:23:11.374Z,2.27
2019-03-01T05:28:17.625Z,1.80
2019-03-01T05:33:23.586Z,2.00
2019-03-01T05:38:29.663Z,3.58
2019-03-01T05:43:35.956Z,1.85
2019-03-01T05:48:42.128Z,2.80
2019-03-01T05:53:48.450Z,17.42
2019-03-01T05:59:29.633Z,12.13
2019-03-01T06:04:40.172Z,8.20
2019-03-01T06:10:13.922Z,6.78
2019-03-01T06:15:51.023Z,6.78
2019-03-01T06:21:37.978Z,5.78
2019-03-01T06:27:26.417Z,4.70
2019-03-01T06:33:37.311Z,3.08
2019-03-01T06:39:25.464Z,1.95
2019-03-01T06:44:52.110Z,2.30
2019-03-01T06:50:07.560Z,2.52
2019-03-01T06:55:53.604Z,2.30
2019-03-01T07:01:12.497Z,3.70
2019-03-01T07:06:18.626Z,10.38
2019-03-01T07:11:24.647Z,13.43
2019-03-01T07:16:30.945Z,15.23
2019-03-01T07:21:37.227Z,8.25
2019-03-01T07:26:43.132Z,6.87
2019-03-01T07:31:49.334Z,10.50
2019-03-01T07:36:55.495Z,16.82
2019-03-01T07:42:01.579Z,14.87
2019-03-01T07:47:07.538Z,24.72
2019-03-01T07:52:13.829Z,19.60
2019-03-01T07:57:20.107Z,16.35
2019-03-01T08:02:26.247Z,13.50
2019-03-01T08:07:32.525Z,12.75
2019-03-01T08:12:42.161Z,11.88
2019-03-01T08:17:46.483Z,10.17
2019-03-01T08:22:52.691Z,6.20
2019-03-01T08:27:58.972Z,3.02
2019-03-01T08:33:06.724Z,2.10
2019-03-01T08:38:13.229Z,2.15
2019-03-01T08:43:19.196Z,1.70
2019-03-01T08:48:25.716Z,2.10
2019-03-01T08:53:31.896Z,1.95
2019-03-01T08:58:41.588Z,1.70
2019-03-01T09:03:55.010Z,1.65
2019-03-01T09:09:01.115Z,1.60
2019-03-01T09:14:07.196Z,1.67
2019-03-01T09:19:13.457Z,1.60
2019-03-01T09:24:19.837Z,1.40
2019-03-01T09:29:25.827Z,1.10
2019-03-01T09:34:33.016Z,1.20
2019-03-01T09:39:39.292Z,0.88
2019-03-01T09:44:45.539Z,1.30
2019-03-01T09:49:51.704Z,1.40
2019-03-01T09:54:57.628Z,1.10
2019-03-01T10:00:03.657Z,1.10
2019-03-01T10:05:11.722Z,1.20
2019-03-01T10:10:21.659Z,0.98
2019-03-01T10:15:27.754Z,0.90
2019-03-01T10:20:34.063Z,1.42
2019-03-01T10:25:40.186Z,0.98
2019-03-01T10:30:46.513Z,1.20
2019-03-01T10:35:52.650Z,1.00
2019-03-01T10:40:58.862Z,0.80
2019-03-01T10:46:05.073Z,0.75
2019-03-01T10:51:11.383Z,1.32
2019-03-01T10:56:17.601Z,0.85
2019-03-01T11:01:23.810Z,1.10
2019-03-01T11:06:30.027Z,1.20
2019-03-01T11:11:36.194Z,1.10
2019-03-01T11:16:42.257Z,1.07
2019-03-01T11:21:48.655Z,0.82
2019-03-01T11:26:55.135Z,1.32
2019-03-01T11:32:01.806Z,1.00
2019-03-01T11:37:07.931Z,0.85
2019-03-01T11:42:14.067Z,1.10
2019-03-01T11:47:20.185Z,1.10
2019-03-01T11:52:26.421Z,0.93
2019-03-01T11:57:32.410Z,0.90
2019-03-01T12:02:38.646Z,1.20
2019-03-01T12:07:44.856Z,1.40
2019-03-01T12:12:51.211Z,1.17
2019-03-01T12:17:57.541Z,1.10
2019-03-01T12:23:03.886Z,0.65
2019-03-01T12:28:10.096Z,0.65
2019-03-01T12:33:16.287Z,1.00
2019-03-01T12:38:22.625Z,0.80
2019-03-01T12:43:28.703Z,1.07
2019-03-01T12:48:34.901Z,0.65
2019-03-01T12:53:41.452Z,0.80
2019-03-01T12:58:49.444Z,0.70
2019-03-01T13:03:55.550Z,0.90
2019-03-01T13:09:01.580Z,0.80
2019-03-01T13:14:07.695Z,0.85
2019-03-01T13:19:13.683Z,0.70
2019-03-01T13:24:19.804Z,0.93
2019-03-01T13:29:25.823Z,0.78
2019-03-01T13:34:32.110Z,0.72
2019-03-01T13:39:38.476Z,0.80
2019-03-01T13:44:44.596Z,0.80
2019-03-01T13:49:50.796Z,0.55
2019-03-01T13:54:56.976Z,0.65
2019-03-01T14:00:03.109Z,0.65
2019-03-01T14:05:09.940Z,0.60
2019-03-01T14:10:17.507Z,0.75
2019-03-01T14:15:23.734Z,1.27
2019-03-01T14:20:30.008Z,0.70
2019-03-01T14:25:38.585Z,0.70
2019-03-01T14:30:43.997Z,1.27
2019-03-01T14:35:50.302Z,1.20
2019-03-01T14:40:59.565Z,1.30
2019-03-01T14:46:04.499Z,0.70
2019-03-01T14:51:11.818Z,1.98
2019-03-01T14:56:31.255Z,0.78
2019-03-01T15:01:59.297Z,0.98
2019-03-01T15:07:06.284Z,0.98
2019-03-01T15:12:19.655Z,0.50
2019-03-01T15:17:21.654Z,0.98
2019-03-01T15:22:28.623Z,0.93
2019-03-01T15:27:39.855Z,0.90
2019-03-01T15:32:42.886Z,0.90
2019-03-01T15:37:49.145Z,0.80
2019-03-01T15:42:55.532Z,1.30
2019-03-01T15:48:02.771Z,1.10
2019-03-01T15:53:09.237Z,1.02
2019-03-01T15:58:15.719Z,1.00
2019-03-01T16:03:21.964Z,1.02
2019-03-01T16:08:28.152Z,1.15
2019-03-01T16:13:34.336Z,0.93
2019-03-01T16:18:40.553Z,1.42
2019-03-01T16:23:46.620Z,0.80
2019-03-01T16:28:52.940Z,0.95
2019-03-01T16:34:00.962Z,1.30
2019-03-01T16:39:11.846Z,1.12
2019-03-01T16:44:18.026Z,1.05
2019-03-01T16:49:27.275Z,1.10
2019-03-01T16:54:32.257Z,1.20
2019-03-01T16:59:39.577Z,1.12
2019-03-01T17:04:46.057Z,1.20
2019-03-01T17:09:54.855Z,1.12
2019-03-01T17:15:01.420Z,1.22
2019-03-01T17:20:09.048Z,1.37
2019-03-01T17:25:19.304Z,1.90
2019-03-01T17:30:25.258Z,1.90
2019-03-01T17:35:31.616Z,2.30
2019-03-01T17:40:37.982Z,3.20
2019-03-01T17:45:44.444Z,3.12
2019-03-01T17:50:50.836Z,2.37
2019-03-01T17:55:57.291Z,1.50
2019-03-01T18:01:03.890Z,2.65
2019-03-01T18:06:13.008Z,6.20
2019-03-01T18:11:18.388Z,6.72
2019-03-01T18:16:24.918Z,7.90
2019-03-01T18:21:31.775Z,11.08
2019-03-01T18:26:39.836Z,6.67
2019-03-01T18:31:45.773Z,5.37
2019-03-01T18:36:52.230Z,5.10
2019-03-01T18:41:59.364Z,6.25
2019-03-01T18:47:06.758Z,6.17
2019-03-01T18:52:14.417Z,6.33
2019-03-01T18:57:20.995Z,6.22
2019-03-01T19:02:27.637Z,15.30
2019-03-01T19:07:34.780Z,5.67
2019-03-01T19:12:41.015Z,10.30
2019-03-01T19:17:47.467Z,14.25
2019-03-01T19:22:53.694Z,15.85
2019-03-01T19:27:59.955Z,16.25
2019-03-01T19:33:06.233Z,14.45
2019-03-01T19:38:12.531Z,32.60
2019-03-01T19:43:18.689Z,26.25
2019-03-01T19:48:25.021Z,36.38
2019-03-01T19:53:31.149Z,31.95
2019-03-01T19:58:37.327Z,33.28
2019-03-01T20:03:45.426Z,42.45
2019-03-01T20:08:51.641Z,73.50
2019-03-01T20:13:57.616Z,41.20
2019-03-01T20:19:03.790Z,60.12
2019-03-01T20:24:09.772Z,42.88
2019-03-01T20:29:16.041Z,38.45
2019-03-01T20:34:22.078Z,27.25
2019-03-01T20:39:28.251Z,21.20
2019-03-01T20:44:34.330Z,23.10
2019-03-01T20:49:40.737Z,24.18
2019-03-01T20:54:46.847Z,26.60
2019-03-01T20:59:53.072Z,24.00
2019-03-01T21:04:59.382Z,35.98
2019-03-01T21:10:07.037Z,27.73
2019-03-01T21:15:13.464Z,30.60
2019-03-01T21:20:20.974Z,30.95
2019-03-01T21:25:27.249Z,26.55
2019-03-01T21:30:33.627Z,25.75
2019-03-01T21:35:39.864Z,33.65
2019-03-01T21:40:46.964Z,31.65
2019-03-01T21:45:55.569Z,31.50
2019-03-01T21:51:01.099Z,27.75
2019-03-01T21:56:08.614Z,25.17
2019-03-01T22:01:15.017Z,36.38
2019-03-01T22:06:23.864Z,24.23
2019-03-01T22:11:29.185Z,31.97
2019-03-01T22:16:36.607Z,21.27
2019-03-01T22:21:43.252Z,49.73
2019-03-01T22:26:50.332Z,29.18
2019-03-01T22:31:56.618Z,19.35
2019-03-01T22:37:02.896Z,17.70
2019-03-01T22:42:11.446Z,20.92
2019-03-01T22:47:16.996Z,15.58
2019-03-01T22:52:26.745Z,9.50
2019-03-01T22:57:31.322Z,8.88
2019-03-01T23:02:40.353Z,12.28
2019-03-01T23:07:45.794Z,10.05
2019-03-01T23:12:51.874Z,7.45
2019-03-01T23:17:57.952Z,7.87
2019-03-01T23:23:04.150Z,7.58
2019-03-01T23:28:10.467Z,7.62
2019-03-01T23:33:16.489Z,6.42
2019-03-01T23:38:22.849Z,6.05
2019-03-01T23:43:30.788Z,6.92
2019-03-01T23:48:37.105Z,6.00
2019-03-01T23:53:43.328Z,5.95
2019-03-01T23:58:51.926Z,5.40
